Leyba, New Mexico
Current Conditions -  °F | °C
As of 11:53 AM on Sunday 21 Dec 2014 (Local Time) from KCQC Reporting Station
Clear Clear  
Wind Chill: 29°   Ceiling: Unl
Heat Index: 41°   Visibility: 10mi
Dew Point: 25°   Wind: 38mph
Humidity: 53%   Direction: 300°WNW
Pressure: 29.88"   Gusts: 45mph
Location:  35.2352°N, 105.52°W
Report Text: KCQC 211853Z AUTO 30033G39KT 10SM CLR 05/M04 A2988 RMK AO2 PK WND 30043/1834 SLP098 T00501039
Loading
Personal Weather Stations






























Interactive Weather Map New forecast layout! Learn more

10-Day Weather Forecast

Advertisements
Track Severe Weather on mobile